Observation data for Andrews on 08/14/2019      Previous  Date  Next       Current Mesonet Observations  Soil Data  Daily Summary Page  Observations in Plain Language
KANS 140500Z 07004KT 29/14 A3009 RMK A01 T02870144  RH  042%=      5-min Rain = 0
KANS 140505Z 07004KT 29/14 A3009 RMK A01 T02860143  RH  042%=      5-min Rain = 0
KANS 140510Z 07005KT 29/14 A3009 RMK A01 T02850143  RH  043%=      5-min Rain = 0
KANS 140515Z 06005KT 28/14 A301 RMK A01 T02840142  RH  043%=      5-min Rain = 0
KANS 140520Z 07004KT 28/14 A301 RMK A01 T02840142  RH  043%=      5-min Rain = 0
KANS 140525Z 08004KT 28/14 A301 RMK A01 T02840141  RH  043%=      5-min Rain = 0
KANS 140530Z 09005KT 28/14 A301 RMK A01 T02830141  RH  043%=      5-min Rain = 0
KANS 140535Z 09004KT 28/14 A301 RMK A01 T02830140  RH  042%=      5-min Rain = 0
KANS 140540Z 10005KT 28/14 A3011 RMK A01 T02830140  RH  042%=      5-min Rain = 0
KANS 140545Z 09005KT 28/14 A3011 RMK A01 T02830141  RH  043%=      5-min Rain = 0
KANS 140550Z 09005KT 28/14 A3011 RMK A01 T02820141  RH  043%=      5-min Rain = 0
KANS 140555Z 09004KT 28/14 A3011 RMK A01 T02810141  RH  043%=      5-min Rain = 0
KANS 140600Z 09004KT 28/14 A3011 RMK A01 T02800142  RH  044%=      5-min Rain = 0
KANS 140605Z 10004KT 28/14 A3011 RMK A01 T02790142  RH  044%=      5-min Rain = 0
KANS 140610Z 08004KT 28/14 A3011 RMK A01 T02790141  RH  044%=      5-min Rain = 0
KANS 140615Z 08004KT 28/14 A3011 RMK A01 T02780141  RH  044%=      5-min Rain = 0
KANS 140620Z 09005KT 28/14 A3011 RMK A01 T02760141  RH  044%=      5-min Rain = 0
KANS 140625Z 09005KT 28/14 A301 RMK A01 T02760141  RH  044%=      5-min Rain = 0
KANS 140630Z 07004KT 28/14 A301 RMK A01 T02760141  RH  044%=      5-min Rain = 0
KANS 140635Z 08004KT 27/14 A301 RMK A01 T02730141  RH  045%=      5-min Rain = 0
KANS 140640Z 08004KT 27/14 A301 RMK A01 T02710141  RH  046%=      5-min Rain = 0
KANS 140645Z 09004KT 27/14 A301 RMK A01 T02690141  RH  046%=      5-min Rain = 0
KANS 140650Z 08004KT 27/14 A301 RMK A01 T02670141  RH  047%=      5-min Rain = 0
KANS 140655Z 07004KT 27/14 A301 RMK A01 T02660142  RH  047%=      5-min Rain = 0
KANS 140700Z 07005KT 26/14 A301 RMK A01 T02640142  RH  048%=      5-min Rain = 0
KANS 140705Z 06005KT 26/14 A301 RMK A01 T02630142  RH  048%=      5-min Rain = 0
KANS 140710Z 06007KT 27/15 A301 RMK A01 T02660145  RH  048%=      5-min Rain = 0
KANS 140715Z 07007KT 27/15 A301 RMK A01 T02720149  RH  048%=      5-min Rain = 0
KANS 140720Z 07007KT 28/15 A301 RMK A01 T02750154  RH  049%=      5-min Rain = 0
KANS 140725Z 06006KT 28/16 A301 RMK A01 T02750155  RH  049%=      5-min Rain = 0
KANS 140730Z 06006KT 27/16 A301 RMK A01 T02730156  RH  050%=      5-min Rain = 0
KANS 140735Z 07006KT 27/16 A301 RMK A01 T02720157  RH  051%=      5-min Rain = 0
KANS 140740Z 07006KT 27/16 A301 RMK A01 T02700158  RH  051%=      5-min Rain = 0
KANS 140745Z 06006KT 27/16 A301 RMK A01 T02700159  RH  052%=      5-min Rain = 0
KANS 140750Z 05005KT 27/16 A301 RMK A01 T02700160  RH  052%=      5-min Rain = 0
KANS 140755Z 05004KT 27/16 A301 RMK A01 T02680159  RH  052%=      5-min Rain = 0
KANS 140800Z 06005KT 27/16 A3009 RMK A01 T02650159  RH  053%=      5-min Rain = 0
KANS 140805Z 06005KT 26/16 A3009 RMK A01 T02640159  RH  054%=      5-min Rain = 0
KANS 140810Z 04005KT 26/16 A3009 RMK A01 T02630158  RH  054%=      5-min Rain = 0
KANS 140815Z 04004KT 26/16 A3009 RMK A01 T02610156  RH  053%=      5-min Rain = 0
KANS 140820Z 04004KT 26/15 A3009 RMK A01 T02590154  RH  053%=      5-min Rain = 0
KANS 140825Z 05004KT 26/15 A3009 RMK A01 T02570153  RH  054%=      5-min Rain = 0
KANS 140830Z 04004KT 26/15 A3009 RMK A01 T02570153  RH  054%=      5-min Rain = 0
KANS 140835Z 04003KT 26/15 A3009 RMK A01 T02550152  RH  054%=      5-min Rain = 0
KANS 140840Z 03004KT 25/15 A3009 RMK A01 T02530152  RH  055%=      5-min Rain = 0
KANS 140845Z 04003KT 25/15 A3009 RMK A01 T02510152  RH  055%=      5-min Rain = 0
KANS 140850Z 05004KT 25/15 A3009 RMK A01 T02500153  RH  056%=      5-min Rain = 0
KANS 140855Z 05004KT 25/16 A3009 RMK A01 T02500155  RH  057%=      5-min Rain = 0
KANS 140900Z 05004KT 25/16 A3009 RMK A01 T02500156  RH  057%=      5-min Rain = 0
KANS 140905Z 05005KT 25/16 A3009 RMK A01 T02500159  RH  058%=      5-min Rain = 0
KANS 140910Z 05006KT 25/16 A3009 RMK A01 T02520163  RH  059%=      5-min Rain = 0
KANS 140915Z 05006KT 25/17 A3009 RMK A01 T02520165  RH  060%=      5-min Rain = 0
KANS 140920Z 06007KT 25/17 A3009 RMK A01 T02530169  RH  061%=      5-min Rain = 0
KANS 140925Z 06008KT 26/17 A3009 RMK A01 T02550173  RH  062%=      5-min Rain = 0
KANS 140930Z 06008KT 26/18 A3009 RMK A01 T02570175  RH  062%=      5-min Rain = 0
KANS 140935Z 06009KT 26/18 A3009 RMK A01 T02580175  RH  062%=      5-min Rain = 0
KANS 140940Z 06009KT 26/18 A3009 RMK A01 T02590176  RH  062%=      5-min Rain = 0
KANS 140945Z 06009KT 26/18 A3009 RMK A01 T02590176  RH  062%=      5-min Rain = 0
KANS 140950Z 05009KT 26/18 A3009 RMK A01 T02580176  RH  062%=      5-min Rain = 0
KANS 140955Z 05008KT 26/18 A3009 RMK A01 T02570176  RH  062%=      5-min Rain = 0
KANS 141000Z 05008KT 26/18 A3009 RMK A01 T02560176  RH  063%=      5-min Rain = 0
KANS 141005Z 05008KT 25/18 A3009 RMK A01 T02540175  RH  063%=      5-min Rain = 0
KANS 141010Z 05010KT 25/17 A3009 RMK A01 T02540174  RH  063%=      5-min Rain = 0
KANS 141015Z 05009KT 25/17 A3009 RMK A01 T02540174  RH  063%=      5-min Rain = 0
KANS 141020Z 05008KT 25/18 A3009 RMK A01 T02530175  RH  063%=      5-min Rain = 0
KANS 141025Z 05008KT 25/18 A3009 RMK A01 T02520175  RH  064%=      5-min Rain = 0
KANS 141030Z 05007KT 25/18 A3009 RMK A01 T02510175  RH  064%=      5-min Rain = 0
KANS 141035Z 05008KT 25/17 A301 RMK A01 T02500174  RH  064%=      5-min Rain = 0
KANS 141040Z 04007KT 25/17 A301 RMK A01 T02490174  RH  065%=      5-min Rain = 0
KANS 141045Z 05006KT 25/17 A301 RMK A01 T02470174  RH  065%=      5-min Rain = 0
KANS 141050Z 05007KT 25/17 A301 RMK A01 T02460174  RH  066%=      5-min Rain = 0
KANS 141055Z 05007KT 25/17 A301 RMK A01 T02460174  RH  066%=      5-min Rain = 0
KANS 141100Z 05008KT 25/18 A301 RMK A01 T02450175  RH  066%=      5-min Rain = 0
KANS 141105Z 05008KT 25/18 A301 RMK A01 T02450175  RH  067%=      5-min Rain = 0
KANS 141110Z 05009KT 24/18 A301 RMK A01 T02440176  RH  067%=      5-min Rain = 0
KANS 141115Z 05008KT 24/18 A301 RMK A01 T02440176  RH  067%=      5-min Rain = 0
KANS 141120Z 04007KT 24/18 A3011 RMK A01 T02430176  RH  068%=      5-min Rain = 0
KANS 141125Z 05008KT 24/18 A3011 RMK A01 T02420176  RH  068%=      5-min Rain = 0
KANS 141130Z 05009KT 24/18 A3011 RMK A01 T02420176  RH  068%=      5-min Rain = 0
KANS 141135Z 05009KT 24/18 A3011 RMK A01 T02420176  RH  069%=      5-min Rain = 0
KANS 141140Z 05009KT 24/18 A3012 RMK A01 T02410177  RH  069%=      5-min Rain = 0
KANS 141145Z 05010KT 24/18 A3012 RMK A01 T02410177  RH  069%=      5-min Rain = 0
KANS 141150Z 05009KT 24/18 A3012 RMK A01 T02410177  RH  069%=      5-min Rain = 0
KANS 141155Z 05010G15KT 24/18 A3012 RMK A01 T02410177  RH  069%=      5-min Rain = 0
KANS 141200Z 05008KT 24/18 A3012 RMK A01 T02400177  RH  069%=      5-min Rain = 0
KANS 141205Z 06009KT 24/18 A3012 RMK A01 T02400177  RH  070%=      5-min Rain = 0
KANS 141210Z 05008G13KT 24/18 A3013 RMK A01 T02390177  RH  070%=      5-min Rain = 0
KANS 141215Z 05008KT 24/18 A3013 RMK A01 T02390177  RH  070%=      5-min Rain = 0
KANS 141220Z 05007KT 24/18 A3013 RMK A01 T02380177  RH  070%=      5-min Rain = 0
KANS 141225Z 05008KT 24/18 A3013 RMK A01 T02370177  RH  071%=      5-min Rain = 0
KANS 141230Z 05009KT 24/18 A3014 RMK A01 T02370177  RH  071%=      5-min Rain = 0
KANS 141235Z 05010KT 24/18 A3014 RMK A01 T02380177  RH  070%=      5-min Rain = 0
KANS 141240Z 05010KT 24/18 A3014 RMK A01 T02390177  RH  070%=      5-min Rain = 0
KANS 141245Z 05010G17KT 24/18 A3015 RMK A01 T02410177  RH  069%=      5-min Rain = 0
KANS 141250Z 04010KT 24/18 A3015 RMK A01 T02420177  RH  069%=      5-min Rain = 0
KANS 141255Z 05011G16KT 24/18 A3015 RMK A01 T02430177  RH  068%=      5-min Rain = 0
KANS 141300Z 05011KT 25/18 A3015 RMK A01 T02450177  RH  068%=      5-min Rain = 0
KANS 141305Z 05011KT 25/18 A3016 RMK A01 T02460177  RH  067%=      5-min Rain = 0
KANS 141310Z 05012G17KT 25/18 A3016 RMK A01 T02480177  RH  066%=      5-min Rain = 0
KANS 141315Z 05012G17KT 25/18 A3016 RMK A01 T02490177  RH  066%=      5-min Rain = 0
KANS 141320Z 06014KT 25/18 A3016 RMK A01 T02500177  RH  066%=      5-min Rain = 0
KANS 141325Z 05016G21KT 25/18 A3016 RMK A01 T02500177  RH  065%=      5-min Rain = 0
KANS 141330Z 05013G18KT 25/18 A3016 RMK A01 T02510177  RH  065%=      5-min Rain = 0
KANS 141335Z 04014G21KT 25/18 A3017 RMK A01 T02530177  RH  064%=      5-min Rain = 0
KANS 141340Z 06014G23KT 25/18 A3017 RMK A01 T02530176  RH  064%=      5-min Rain = 0
KANS 141345Z 05014G19KT 25/18 A3017 RMK A01 T02530176  RH  064%=      5-min Rain = 0
KANS 141350Z 05015G20KT 25/18 A3017 RMK A01 T02540176  RH  063%=      5-min Rain = 0
KANS 141355Z 05015G21KT 26/18 A3018 RMK A01 T02550176  RH  063%=      5-min Rain = 0
KANS 141400Z 06016G21KT 26/18 A3018 RMK A01 T02560175  RH  062%=      5-min Rain = 0
KANS 141405Z 05017G23KT 26/18 A3019 RMK A01 T02550175  RH  062%=      5-min Rain = 0
KANS 141410Z 04015G22KT 26/18 A3019 RMK A01 T02580175  RH  062%=      5-min Rain = 0
KANS 141415Z 05014G20KT 26/18 A3019 RMK A01 T02590175  RH  061%=      5-min Rain = 0
KANS 141420Z 05014G21KT 26/17 A302 RMK A01 T02610174  RH  060%=      5-min Rain = 0
KANS 141425Z 04016G21KT 26/17 A302 RMK A01 T02610173  RH  059%=      5-min Rain = 0
KANS 141430Z 04015G22KT 26/17 A302 RMK A01 T02610173  RH  060%=      5-min Rain = 0
KANS 141435Z 05014G20KT 26/17 A3021 RMK A01 T02630173  RH  059%=      5-min Rain = 0
KANS 141440Z 04015G20KT 27/17 A302 RMK A01 T02660172  RH  058%=      5-min Rain = 0
KANS 141445Z 03015G21KT 27/17 A3021 RMK A01 T02670171  RH  057%=      5-min Rain = 0
KANS 141450Z 03017G24KT 27/17 A3021 RMK A01 T02680170  RH  057%=      5-min Rain = 0
KANS 141455Z 03014G20KT 27/17 A3022 RMK A01 T02670170  RH  056%=      5-min Rain = 0
KANS 141500Z 04017G22KT 27/17 A3022 RMK A01 T02670169  RH  057%=      5-min Rain = 0
KANS 141505Z 04016G22KT 27/17 A3022 RMK A01 T02670170  RH  057%=      5-min Rain = 0
KANS 141510Z 03014G21KT 27/17 A3022 RMK A01 T02690170  RH  056%=      5-min Rain = 0
KANS 141515Z 04017G23KT 27/17 A3022 RMK A01 T02700170  RH  056%=      5-min Rain = 0
KANS 141520Z 02018G24KT 27/17 A3022 RMK A01 T02670169  RH  056%=      5-min Rain = 0
KANS 141525Z 04017G23KT 27/17 A3022 RMK A01 T02650169  RH  057%=      5-min Rain = 0
KANS 141530Z 02015G21KT 27/17 A3022 RMK A01 T02690168  RH  055%=      5-min Rain = 0
KANS 141535Z 03015G23KT 27/17 A3022 RMK A01 T02720168  RH  054%=      5-min Rain = 0
KANS 141540Z 04016G24KT 27/17 A3022 RMK A01 T02740168  RH  054%=      5-min Rain = 0
KANS 141545Z 03018G25KT 27/17 A3022 RMK A01 T02740169  RH  054%=      5-min Rain = 0
KANS 141550Z 04016G22KT 27/17 A3022 RMK A01 T02730167  RH  054%=      5-min Rain = 0
KANS 141555Z 03014G20KT 28/17 A3022 RMK A01 T02790166  RH  051%=      5-min Rain = 0
KANS 141600Z 04015G21KT 28/17 A3022 RMK A01 T02810165  RH  051%=      5-min Rain = 0
KANS 141605Z 06017G22KT 28/17 A3022 RMK A01 T02790165  RH  051%=      5-min Rain = 0
KANS 141610Z 06015G21KT 28/17 A3023 RMK A01 T02810165  RH  050%=      5-min Rain = 0
KANS 141615Z 03018G25KT 28/16 A3023 RMK A01 T02830164  RH  050%=      5-min Rain = 0
KANS 141620Z 03017G24KT 29/16 A3023 RMK A01 T02860164  RH  049%=      5-min Rain = 0
KANS 141625Z 04015G22KT 29/16 A3023 RMK A01 T02860164  RH  049%=      5-min Rain = 0
KANS 141630Z 04017G24KT 29/16 A3023 RMK A01 T02920163  RH  047%=      5-min Rain = 0
KANS 141635Z 03017G23KT 29/16 A3023 RMK A01 T02930163  RH  046%=      5-min Rain = 0
KANS 141640Z 03016KT 30/16 A3023 RMK A01 T02980161  RH  045%=      5-min Rain = 0
KANS 141645Z 04016G24KT 30/16 A3023 RMK A01 T02970161  RH  045%=      5-min Rain = 0
KANS 141650Z 05016G22KT 30/16 A3023 RMK A01 T02970160  RH  045%=      5-min Rain = 0
KANS 141655Z 05016G23KT 30/16 A3022 RMK A01 T02990160  RH  044%=      5-min Rain = 0
KANS 141700Z 04016G21KT 30/16 A3022 RMK A01 T02980159  RH  044%=      5-min Rain = 0
KANS 141705Z 05014G22KT 30/16 A3022 RMK A01 T03020160  RH  043%=      5-min Rain = 0
KANS 141710Z 04017G22KT 30/16 A3022 RMK A01 T03020159  RH  043%=      5-min Rain = 0
KANS 141715Z 04015KT 30/16 A3022 RMK A01 T03030159  RH  043%=      5-min Rain = 0
KANS 141720Z 05013G21KT 31/16 A3021 RMK A01 T03060159  RH  042%=      5-min Rain = 0
KANS 141725Z 06012G19KT 31/16 A3021 RMK A01 T03050159  RH  042%=      5-min Rain = 0
KANS 141730Z 06012G19KT 31/16 A3021 RMK A01 T03070159  RH  042%=      5-min Rain = 0
KANS 141735Z 06010G16KT 31/16 A3021 RMK A01 T03070158  RH  041%=      5-min Rain = 0
KANS 141740Z 04012G18KT 31/16 A3021 RMK A01 T03100158  RH  041%=      5-min Rain = 0
KANS 141745Z 06010G15KT 32/16 A302 RMK A01 T03170157  RH  039%=      5-min Rain = 0
KANS 141750Z 06011G17KT 32/16 A302 RMK A01 T03160155  RH  039%=      5-min Rain = 0
KANS 141755Z 05011G18KT 32/16 A3019 RMK A01 T03180155  RH  038%=      5-min Rain = 0
KANS 141800Z 06013G19KT 32/15 A3019 RMK A01 T03180152  RH  038%=      5-min Rain = 0
KANS 141805Z 07012G19KT 32/16 A3019 RMK A01 T03150155  RH  039%=      5-min Rain = 0
KANS 141810Z 07013G18KT 32/15 A3018 RMK A01 T03190152  RH  037%=      5-min Rain = 0
KANS 141815Z 06012G19KT 32/15 A3018 RMK A01 T03190149  RH  037%=      5-min Rain = 0
KANS 141820Z 06012G20KT 32/15 A3018 RMK A01 T03230146  RH  035%=      5-min Rain = 0
KANS 141825Z 06012G17KT 32/15 A3017 RMK A01 T03220145  RH  035%=      5-min Rain = 0
KANS 141830Z 06012G21KT 33/15 A3017 RMK A01 T03260146  RH  035%=      5-min Rain = 0
KANS 141835Z 08010G16KT 33/15 A3017 RMK A01 T03250146  RH  035%=      5-min Rain = 0
KANS 141840Z 06011G17KT 33/15 A3017 RMK A01 T03280147  RH  034%=      5-min Rain = 0
KANS 141845Z 06011G16KT 33/15 A3017 RMK A01 T03330146  RH  033%=      5-min Rain = 0
KANS 141850Z 08010G16KT 33/15 A3016 RMK A01 T03310146  RH  033%=      5-min Rain = 0
KANS 141855Z 06010G15KT 34/15 A3016 RMK A01 T03360146  RH  033%=      5-min Rain = 0
KANS 141900Z 06011G17KT 34/14 A3016 RMK A01 T03350144  RH  032%=      5-min Rain = 0
KANS 141905Z 07009G16KT 34/15 A3016 RMK A01 T03360146  RH  032%=      5-min Rain = 0
KANS 141910Z 09011G17KT 34/15 A3016 RMK A01 T03350145  RH  032%=      5-min Rain = 0
KANS 141915Z 07009G18KT 34/14 A3015 RMK A01 T03360144  RH  032%=      5-min Rain = 0
KANS 141920Z 07011G17KT 34/14 A3015 RMK A01 T03380142  RH  031%=      5-min Rain = 0
KANS 141925Z 05011G16KT 34/14 A3015 RMK A01 T03410142  RH  031%=      5-min Rain = 0
KANS 141930Z 08007G13KT 34/14 A3015 RMK A01 T03410144  RH  031%=      5-min Rain = 0
KANS 141935Z 07010G17KT 34/14 A3014 RMK A01 T03440143  RH  031%=      5-min Rain = 0
KANS 141940Z 08006G13KT 35/14 A3014 RMK A01 T03450143  RH  030%=      5-min Rain = 0
KANS 141945Z 06010G16KT 34/14 A3014 RMK A01 T03440142  RH  030%=      5-min Rain = 0
KANS 141950Z 05009G16KT 34/14 A3014 RMK A01 T03440139  RH  030%=      5-min Rain = 0
KANS 141955Z 07010G15KT 35/14 A3014 RMK A01 T03480141  RH  030%=      5-min Rain = 0
KANS 142000Z 07008G13KT 35/14 A3013 RMK A01 T03490139  RH  029%=      5-min Rain = 0
KANS 142005Z 07009G16KT 35/14 A3013 RMK A01 T03490138  RH  029%=      5-min Rain = 0
KANS 142010Z 04011G16KT 35/14 A3013 RMK A01 T03490137  RH  029%=      5-min Rain = 0
KANS 142015Z 03010G16KT 35/14 A3013 RMK A01 T03500135  RH  028%=      5-min Rain = 0
KANS 142020Z 06009G17KT 35/14 A3012 RMK A01 T03500135  RH  028%=      5-min Rain = 0
KANS 142025Z 03007KT 35/14 A3012 RMK A01 T03490135  RH  028%=      5-min Rain = 0
KANS 142030Z 04011G17KT 35/14 A3012 RMK A01 T03540135  RH  027%=      5-min Rain = 0
KANS 142035Z 02006G12KT 36/13 A3011 RMK A01 T03560133  RH  027%=      5-min Rain = 0
KANS 142040Z 07010G16KT 35/13 A3011 RMK A01 T03500134  RH  028%=      5-min Rain = 0
KANS 142045Z 07010G17KT 35/13 A3011 RMK A01 T03490132  RH  028%=      5-min Rain = 0
KANS 142050Z 04010KT 35/13 A3011 RMK A01 T03520128  RH  027%=      5-min Rain = 0
KANS 142055Z 03008G13KT 35/13 A3011 RMK A01 T03520129  RH  027%=      5-min Rain = 0
KANS 142100Z 05009G16KT 35/13 A3011 RMK A01 T03540130  RH  027%=      5-min Rain = 0
KANS 142105Z 04007G12KT 35/13 A301 RMK A01 T03490127  RH  027%=      5-min Rain = 0
KANS 142110Z 06006G12KT 35/12 A301 RMK A01 T03520123  RH  026%=      5-min Rain = 0
KANS 142115Z 02010KT 36/13 A301 RMK A01 T03570125  RH  025%=      5-min Rain = 0
KANS 142120Z 03008G19KT 36/12 A301 RMK A01 T03590120  RH  024%=      5-min Rain = 0
KANS 142125Z 04010KT 36/12 A301 RMK A01 T03600117  RH  024%=      5-min Rain = 0
KANS 142130Z 04009G14KT 36/12 A301 RMK A01 T03610117  RH  023%=      5-min Rain = 0
KANS 142135Z 01007G14KT 36/12 A301 RMK A01 T03640116  RH  023%=      5-min Rain = 0
KANS 142140Z 05004G12KT 36/12 A301 RMK A01 T03630117  RH  023%=      5-min Rain = 0
KANS 142145Z 06008G13KT 36/12 A3009 RMK A01 T03590119  RH  024%=      5-min Rain = 0
KANS 142150Z 08010KT 35/12 A3009 RMK A01 T03540118  RH  025%=      5-min Rain = 0
KANS 142155Z 04006G12KT 36/12 A3009 RMK A01 T03610116  RH  023%=      5-min Rain = 0
KANS 142200Z 05009G14KT 35/12 A3009 RMK A01 T03520115  RH  024%=      5-min Rain = 0
KANS 142205Z 06005G10KT 36/11 A3009 RMK A01 T03550114  RH  024%=      5-min Rain = 0
KANS 142210Z 10006KT 35/11 A3009 RMK A01 T03500112  RH  024%=      5-min Rain = 0
KANS 142215Z 05007KT 35/11 A3009 RMK A01 T03480110  RH  024%=      5-min Rain = 0
KANS 142220Z 07010KT 35/11 A3009 RMK A01 T03450108  RH  024%=      5-min Rain = 0
KANS 142225Z 09009KT 35/11 A3008 RMK A01 T03450110  RH  024%=      5-min Rain = 0
KANS 142230Z 09008G14KT 35/11 A3008 RMK A01 T03460110  RH  024%=      5-min Rain = 0
KANS 142235Z 06008G13KT 35/11 A3008 RMK A01 T03470108  RH  024%=      5-min Rain = 0
KANS 142240Z 05009G15KT 35/11 A3008 RMK A01 T03510106  RH  023%=      5-min Rain = 0
KANS 142245Z 09008G13KT 35/11 A3007 RMK A01 T03530107  RH  023%=      5-min Rain = 0
KANS 142250Z 08009G15KT 35/11 A3007 RMK A01 T03540106  RH  023%=      5-min Rain = 0
KANS 142255Z 08008G13KT 36/10 A3007 RMK A01 T03550104  RH  022%=      5-min Rain = 0
KANS 142300Z 10005KT 36/10 A3007 RMK A01 T03560103  RH  022%=      5-min Rain = 0
KANS 142305Z 04008G13KT 36/10 A3007 RMK A01 T03590099  RH  021%=      5-min Rain = 0
KANS 142310Z 08009G14KT 36/10 A3007 RMK A01 T03600099  RH  021%=      5-min Rain = 0
KANS 142315Z 08008G13KT 36/10 A3007 RMK A01 T03560098  RH  021%=      5-min Rain = 0
KANS 142320Z 08009G16KT 36/10 A3006 RMK A01 T03550097  RH  021%=      5-min Rain = 0
KANS 142325Z 04007KT 36/10 A3006 RMK A01 T03570095  RH  021%=      5-min Rain = 0
KANS 142330Z 06005KT 36/10 A3006 RMK A01 T03590095  RH  020%=      5-min Rain = 0
KANS 142335Z 06008G13KT 36/09 A3006 RMK A01 T03570094  RH  021%=      5-min Rain = 0
KANS 142340Z 05009G16KT 36/09 A3006 RMK A01 T03560090  RH  020%=      5-min Rain = 0
KANS 142345Z 08008G14KT 36/09 A3006 RMK A01 T03550091  RH  020%=      5-min Rain = 0
KANS 142350Z 08008G13KT 36/09 A3006 RMK A01 T03560093  RH  020%=      5-min Rain = 0
KANS 142355Z 09010KT 35/10 A3006 RMK A01 T03520096  RH  021%=      5-min Rain = 0
KANS 150000Z 11010KT 35/10 A3006 RMK A01 T03500095  RH  021%=      5-min Rain = 0
KANS 150005Z 10008KT 35/10 A3006 RMK A01 T03490095  RH  022%=      5-min Rain = 0
KANS 150010Z 09009G15KT 35/10 A3006 RMK A01 T03500101  RH  022%=      5-min Rain = 0
KANS 150015Z 09011G16KT 35/11 A3006 RMK A01 T03460107  RH  024%=      5-min Rain = 0
KANS 150020Z 09010KT 34/11 A3006 RMK A01 T03440108  RH  024%=      5-min Rain = 0
KANS 150025Z 09010KT 34/11 A3006 RMK A01 T03440108  RH  024%=      5-min Rain = 0
KANS 150030Z 09009G14KT 34/11 A3006 RMK A01 T03420108  RH  024%=      5-min Rain = 0
KANS 150035Z 09008KT 34/11 A3006 RMK A01 T03420108  RH  024%=      5-min Rain = 0
KANS 150040Z 09007KT 34/11 A3006 RMK A01 T03420107  RH  024%=      5-min Rain = 0
KANS 150045Z 09008KT 34/11 A3007 RMK A01 T03400106  RH  024%=      5-min Rain = 0
KANS 150050Z 09008KT 34/11 A3007 RMK A01 T03380108  RH  025%=      5-min Rain = 0
KANS 150055Z 10008KT 34/11 A3007 RMK A01 T03370108  RH  025%=      5-min Rain = 0
KANS 150100Z 10008KT 34/11 A3007 RMK A01 T03350107  RH  025%=      5-min Rain = 0
KANS 150105Z 09007KT 33/11 A3007 RMK A01 T03340107  RH  025%=      5-min Rain = 0
KANS 150110Z 09007KT 33/11 A3008 RMK A01 T03330107  RH  026%=      5-min Rain = 0
KANS 150115Z 10008KT 33/11 A3008 RMK A01 T03310107  RH  026%=      5-min Rain = 0
KANS 150120Z 08008KT 33/11 A3008 RMK A01 T03300108  RH  026%=      5-min Rain = 0
KANS 150125Z 08006KT 33/11 A3008 RMK A01 T03270108  RH  027%=      5-min Rain = 0
KANS 150130Z 09006KT 33/11 A3008 RMK A01 T03250108  RH  027%=      5-min Rain = 0
KANS 150135Z 09006KT 32/11 A3008 RMK A01 T03240107  RH  027%=      5-min Rain = 0
KANS 150140Z 09006KT 32/11 A3009 RMK A01 T03230107  RH  027%=      5-min Rain = 0
KANS 150145Z 09006KT 32/11 A3009 RMK A01 T03210106  RH  027%=      5-min Rain = 0
KANS 150150Z 08006KT 32/11 A3009 RMK A01 T03190106  RH  027%=      5-min Rain = 0
KANS 150155Z 08005KT 32/11 A301 RMK A01 T03170106  RH  028%=      5-min Rain = 0
KANS 150200Z 16008G15KT 31/12 A3011 RMK A01 T03130118  RH  031%=      5-min Rain = 0
KANS 150205Z 21008KT 30/14 A3011 RMK A01 T03020144  RH  039%=      5-min Rain = 0
KANS 150210Z 20009G14KT 30/15 A3011 RMK A01 T02960149  RH  042%=      5-min Rain = 0
KANS 150215Z 20008KT 29/15 A3012 RMK A01 T02930150  RH  043%=      5-min Rain = 0
KANS 150220Z 21008KT 29/15 A3012 RMK A01 T02910150  RH  043%=      5-min Rain = 0
KANS 150225Z 20008KT 29/15 A3013 RMK A01 T02900150  RH  043%=      5-min Rain = 0
KANS 150230Z 21007KT 29/15 A3013 RMK A01 T02890151  RH  044%=      5-min Rain = 0
KANS 150235Z 22007KT 29/15 A3013 RMK A01 T02880151  RH  044%=      5-min Rain = 0
KANS 150240Z 23007KT 29/15 A3013 RMK A01 T02860153  RH  045%=      5-min Rain = 0
KANS 150245Z 22008KT 28/15 A3014 RMK A01 T02840154  RH  046%=      5-min Rain = 0
KANS 150250Z 22006KT 28/16 A3014 RMK A01 T02820155  RH  047%=      5-min Rain = 0
KANS 150255Z 22006KT 28/16 A3014 RMK A01 T02800155  RH  048%=      5-min Rain = 0
KANS 150300Z 22005KT 28/16 A3014 RMK A01 T02790156  RH  048%=      5-min Rain = 0
KANS 150305Z 22005KT 28/16 A3014 RMK A01 T02780156  RH  049%=      5-min Rain = 0
KANS 150310Z 23006KT 28/16 A3014 RMK A01 T02760156  RH  049%=      5-min Rain = 0
KANS 150315Z 22006KT 28/16 A3014 RMK A01 T02750156  RH  049%=      5-min Rain = 0
KANS 150320Z 22005KT 27/16 A3014 RMK A01 T02740157  RH  050%=      5-min Rain = 0
KANS 150325Z 23005KT 27/16 A3014 RMK A01 T02730156  RH  050%=      5-min Rain = 0
KANS 150330Z 23005KT 27/16 A3015 RMK A01 T02720157  RH  050%=      5-min Rain = 0
KANS 150335Z 22005KT 27/16 A3015 RMK A01 T02720158  RH  051%=      5-min Rain = 0
KANS 150340Z 23005KT 27/16 A3015 RMK A01 T02710157  RH  051%=      5-min Rain = 0
KANS 150345Z 22005KT 27/16 A3015 RMK A01 T02700157  RH  051%=      5-min Rain = 0
KANS 150350Z 22005KT 27/16 A3015 RMK A01 T02690157  RH  051%=      5-min Rain = 0
KANS 150355Z 22005KT 27/16 A3015 RMK A01 T02680156  RH  052%=      5-min Rain = 0
KANS 150400Z 22004KT 27/16 A3015 RMK A01 T02670157  RH  052%=      5-min Rain = 0
KANS 150405Z 22005KT 27/16 A3015 RMK A01 T02660156  RH  052%=      5-min Rain = 0
KANS 150410Z 21004KT 27/16 A3015 RMK A01 T02650156  RH  052%=      5-min Rain = 0
KANS 150415Z 22004KT 26/16 A3015 RMK A01 T02640155  RH  052%=      5-min Rain = 0
KANS 150420Z 24004KT 26/16 A3015 RMK A01 T02630155  RH  053%=      5-min Rain = 0
KANS 150425Z 22004KT 26/16 A3015 RMK A01 T02620156  RH  053%=      5-min Rain = 0
KANS 150430Z 21003KT 26/16 A3015 RMK A01 T02600156  RH  054%=      5-min Rain = 0
KANS 150435Z 24003KT 26/16 A3015 RMK A01 T02580157  RH  055%=      5-min Rain = 0
KANS 150440Z 23003KT 26/16 A3015 RMK A01 T02570156  RH  055%=      5-min Rain = 0
KANS 150445Z 21002KT 26/16 A3015 RMK A01 T02550157  RH  056%=      5-min Rain = 0
KANS 150450Z 23001KT 25/16 A3016 RMK A01 T02540156  RH  056%=      5-min Rain = 0
KANS 150455Z 27001KT 25/16 A3016 RMK A01 T02530156  RH  056%=      5-min Rain = 0

Page generated in 0.009 seconds.